sensor_id;sensor_type;location;lat;lon;timestamp;P1;durP1;ratioP1;P2;durP2;ratioP2
17947;SDS011;9099;47.958;11.366;2024-03-23T00:55:26;1.27;;;1.27;;
17947;SDS011;9099;47.958;11.366;2024-03-23T00:57:53;1.40;;;1.30;;
17947;SDS011;9099;47.958;11.366;2024-03-23T01:00:18;1.50;;;1.40;;
17947;SDS011;9099;47.958;11.366;2024-03-23T01:02:46;4.32;;;1.25;;
17947;SDS011;9099;47.958;11.366;2024-03-23T01:05:11;1.92;;;1.40;;
17947;SDS011;9099;47.958;11.366;2024-03-23T01:07:38;1.25;;;1.15;;
17947;SDS011;9099;47.958;11.366;2024-03-23T01:10:06;1.40;;;1.30;;
17947;SDS011;9099;47.958;11.366;2024-03-23T01:12:34;1.40;;;1.30;;
17947;SDS011;9099;47.958;11.366;2024-03-23T01:14:59;1.60;;;1.10;;
17947;SDS011;9099;47.958;11.366;2024-03-23T01:17:26;1.42;;;1.20;;
17947;SDS011;9099;47.958;11.366;2024-03-23T01:19:52;1.98;;;1.40;;
17947;SDS011;9099;47.958;11.366;2024-03-23T01:22:19;1.58;;;1.30;;
17947;SDS011;9099;47.958;11.366;2024-03-23T01:24:45;1.20;;;1.10;;
17947;SDS011;9099;47.958;11.366;2024-03-23T01:27:14;1.40;;;1.30;;
17947;SDS011;9099;47.958;11.366;2024-03-23T01:29:40;2.08;;;1.40;;
17947;SDS011;9099;47.958;11.366;2024-03-23T01:32:09;2.45;;;1.40;;
17947;SDS011;9099;47.958;11.366;2024-03-23T01:34:35;3.28;;;1.33;;
17947;SDS011;9099;47.958;11.366;2024-03-23T01:37:02;1.70;;;1.40;;
17947;SDS011;9099;47.958;11.366;2024-03-23T01:39:28;1.30;;;1.20;;
17947;SDS011;9099;47.958;11.366;2024-03-23T01:41:55;1.75;;;1.20;;
17947;SDS011;9099;47.958;11.366;2024-03-23T01:44:24;1.58;;;1.40;;
17947;SDS011;9099;47.958;11.366;2024-03-23T01:46:53;1.88;;;1.40;;
17947;SDS011;9099;47.958;11.366;2024-03-23T01:49:19;2.75;;;1.25;;
17947;SDS011;9099;47.958;11.366;2024-03-23T01:51:47;1.45;;;1.27;;
17947;SDS011;9099;47.958;11.366;2024-03-23T01:54:13;1.67;;;1.20;;
17947;SDS011;9099;47.958;11.366;2024-03-23T01:56:40;1.38;;;1.27;;
17947;SDS011;9099;47.958;11.366;2024-03-23T01:59:06;1.70;;;1.60;;
17947;SDS011;9099;47.958;11.366;2024-03-23T02:01:36;3.22;;;1.45;;
17947;SDS011;9099;47.958;11.366;2024-03-23T02:04:02;1.80;;;1.38;;
17947;SDS011;9099;47.958;11.366;2024-03-23T02:06:29;1.20;;;1.10;;
17947;SDS011;9099;47.958;11.366;2024-03-23T02:08:55;1.58;;;1.40;;
17947;SDS011;9099;47.958;11.366;2024-03-23T02:11:22;1.30;;;1.20;;
17947;SDS011;9099;47.958;11.366;2024-03-23T02:13:48;2.85;;;1.40;;
17947;SDS011;9099;47.958;11.366;2024-03-23T02:16:16;1.63;;;1.40;;
17947;SDS011;9099;47.958;11.366;2024-03-23T02:18:43;1.48;;;1.30;;
17947;SDS011;9099;47.958;11.366;2024-03-23T02:21:11;2.40;;;1.40;;
17947;SDS011;9099;47.958;11.366;2024-03-23T02:23:38;1.60;;;1.50;;
17947;SDS011;9099;47.958;11.366;2024-03-23T02:26:08;1.40;;;1.30;;
17947;SDS011;9099;47.958;11.366;2024-03-23T02:28:37;2.08;;;1.40;;
17947;SDS011;9099;47.958;11.366;2024-03-23T02:31:04;1.88;;;1.52;;
17947;SDS011;9099;47.958;11.366;2024-03-23T02:33:30;1.75;;;1.65;;
17947;SDS011;9099;47.958;11.366;2024-03-23T02:35:59;1.92;;;1.50;;
17947;SDS011;9099;47.958;11.366;2024-03-23T02:38:25;1.65;;;1.55;;
17947;SDS011;9099;47.958;11.366;2024-03-23T02:40:53;1.20;;;1.20;;
17947;SDS011;9099;47.958;11.366;2024-03-23T02:43:19;2.63;;;1.52;;
17947;SDS011;9099;47.958;11.366;2024-03-23T02:45:49;1.83;;;1.48;;
17947;SDS011;9099;47.958;11.366;2024-03-23T02:48:15;1.30;;;1.20;;
17947;SDS011;9099;47.958;11.366;2024-03-23T02:50:42;1.50;;;1.40;;
17947;SDS011;9099;47.958;11.366;2024-03-23T02:53:10;0.98;;;0.98;;
17947;SDS011;9099;47.958;11.366;2024-03-23T02:55:42;1.38;;;1.27;;
17947;SDS011;9099;47.958;11.366;2024-03-23T02:58:10;1.95;;;1.30;;
17947;SDS011;9099;47.958;11.366;2024-03-23T03:00:37;2.05;;;1.30;;
17947;SDS011;9099;47.958;11.366;2024-03-23T03:03:03;1.25;;;1.00;;
17947;SDS011;9099;47.958;11.366;2024-03-23T03:05:30;1.45;;;1.30;;
17947;SDS011;9099;47.958;11.366;2024-03-23T03:07:56;1.10;;;1.10;;
17947;SDS011;9099;47.958;11.366;2024-03-23T03:10:23;1.00;;;1.00;;
17947;SDS011;9099;47.958;11.366;2024-03-23T03:12:49;1.08;;;1.05;;
17947;SDS011;9099;47.958;11.366;2024-03-23T03:15:18;1.65;;;1.33;;
17947;SDS011;9099;47.958;11.366;2024-03-23T03:17:44;3.67;;;1.00;;
17947;SDS011;9099;47.958;11.366;2024-03-23T03:20:12;1.77;;;1.10;;
17947;SDS011;9099;47.958;11.366;2024-03-23T03:22:38;1.40;;;1.30;;
17947;SDS011;9099;47.958;11.366;2024-03-23T03:25:06;0.95;;;0.95;;
17947;SDS011;9099;47.958;11.366;2024-03-23T03:27:32;1.20;;;1.10;;
17947;SDS011;9099;47.958;11.366;2024-03-23T03:30:00;0.95;;;0.95;;
17947;SDS011;9099;47.958;11.366;2024-03-23T03:32:29;2.33;;;1.35;;
17947;SDS011;9099;47.958;11.366;2024-03-23T03:34:56;1.27;;;0.95;;
17947;SDS011;9099;47.958;11.366;2024-03-23T03:37:22;1.33;;;1.23;;
17947;SDS011;9099;47.958;11.366;2024-03-23T03:39:49;1.70;;;1.02;;
17947;SDS011;9099;47.958;11.366;2024-03-23T03:42:15;1.40;;;1.30;;
17947;SDS011;9099;47.958;11.366;2024-03-23T03:44:44;1.30;;;1.20;;
17947;SDS011;9099;47.958;11.366;2024-03-23T03:47:10;1.52;;;1.10;;
17947;SDS011;9099;47.958;11.366;2024-03-23T03:49:38;2.35;;;1.10;;
17947;SDS011;9099;47.958;11.366;2024-03-23T03:52:04;1.42;;;1.10;;
17947;SDS011;9099;47.958;11.366;2024-03-23T03:54:31;1.60;;;1.05;;
17947;SDS011;9099;47.958;11.366;2024-03-23T03:56:58;1.77;;;1.20;;
17947;SDS011;9099;47.958;11.366;2024-03-23T03:59:25;0.90;;;0.90;;
17947;SDS011;9099;47.958;11.366;2024-03-23T04:01:51;2.35;;;1.00;;
17947;SDS011;9099;47.958;11.366;2024-03-23T04:04:18;1.75;;;1.02;;
17947;SDS011;9099;47.958;11.366;2024-03-23T04:06:48;2.08;;;1.00;;
17947;SDS011;9099;47.958;11.366;2024-03-23T04:09:15;1.23;;;0.93;;
17947;SDS011;9099;47.958;11.366;2024-03-23T04:11:41;1.20;;;1.10;;
17947;SDS011;9099;47.958;11.366;2024-03-23T04:14:08;1.23;;;1.13;;
17947;SDS011;9099;47.958;11.366;2024-03-23T04:16:35;1.00;;;0.90;;
17947;SDS011;9099;47.958;11.366;2024-03-23T04:19:07;1.02;;;0.85;;
17947;SDS011;9099;47.958;11.366;2024-03-23T04:21:33;1.00;;;1.00;;
17947;SDS011;9099;47.958;11.366;2024-03-23T04:24:02;0.98;;;0.90;;
17947;SDS011;9099;47.958;11.366;2024-03-23T04:26:39;0.88;;;0.88;;
17947;SDS011;9099;47.958;11.366;2024-03-23T04:29:08;0.85;;;0.85;;
17947;SDS011;9099;47.958;11.366;2024-03-23T04:31:37;1.08;;;1.00;;
17947;SDS011;9099;47.958;11.366;2024-03-23T04:34:04;1.27;;;1.17;;
17947;SDS011;9099;47.958;11.366;2024-03-23T04:36:30;1.10;;;0.80;;
17947;SDS011;9099;47.958;11.366;2024-03-23T04:38:58;1.17;;;1.00;;
17947;SDS011;9099;47.958;11.366;2024-03-23T04:41:29;1.30;;;1.20;;
17947;SDS011;9099;47.958;11.366;2024-03-23T04:44:03;1.20;;;1.10;;
17947;SDS011;9099;47.958;11.366;2024-03-23T04:46:30;0.85;;;0.85;;
17947;SDS011;9099;47.958;11.366;2024-03-23T04:48:57;1.88;;;0.70;;
17947;SDS011;9099;47.958;11.366;2024-03-23T04:51:25;1.75;;;0.98;;
17947;SDS011;9099;47.958;11.366;2024-03-23T04:53:52;0.77;;;0.77;;
17947;SDS011;9099;47.958;11.366;2024-03-23T04:56:20;0.77;;;0.75;;
17947;SDS011;9099;47.958;11.366;2024-03-23T04:58:49;1.88;;;1.10;;
17947;SDS011;9099;47.958;11.366;2024-03-23T05:01:18;0.90;;;0.90;;
17947;SDS011;9099;47.958;11.366;2024-03-23T05:03:45;1.52;;;0.90;;
17947;SDS011;9099;47.958;11.366;2024-03-23T05:06:12;0.90;;;0.70;;
17947;SDS011;9099;47.958;11.366;2024-03-23T05:08:41;1.88;;;1.05;;
17947;SDS011;9099;47.958;11.366;2024-03-23T05:11:07;1.17;;;0.90;;
17947;SDS011;9099;47.958;11.366;2024-03-23T05:13:35;1.10;;;1.00;;
17947;SDS011;9099;47.958;11.366;2024-03-23T05:16:03;1.23;;;0.90;;
17947;SDS011;9099;47.958;11.366;2024-03-23T05:18:30;0.68;;;0.65;;
17947;SDS011;9099;47.958;11.366;2024-03-23T05:20:57;1.08;;;0.98;;
17947;SDS011;9099;47.958;11.366;2024-03-23T05:23:27;1.70;;;0.98;;
17947;SDS011;9099;47.958;11.366;2024-03-23T05:25:54;0.68;;;0.68;;
17947;SDS011;9099;47.958;11.366;2024-03-23T05:28:24;1.15;;;1.00;;
17947;SDS011;9099;47.958;11.366;2024-03-23T05:30:50;0.88;;;0.82;;
17947;SDS011;9099;47.958;11.366;2024-03-23T05:33:19;1.55;;;0.80;;
17947;SDS011;9099;47.958;11.366;2024-03-23T05:35:46;0.80;;;0.80;;
17947;SDS011;9099;47.958;11.366;2024-03-23T05:38:13;0.95;;;0.90;;
17947;SDS011;9099;47.958;11.366;2024-03-23T05:40:39;1.83;;;0.75;;
17947;SDS011;9099;47.958;11.366;2024-03-23T05:43:08;0.88;;;0.80;;
17947;SDS011;9099;47.958;11.366;2024-03-23T05:45:38;1.67;;;0.80;;
17947;SDS011;9099;47.958;11.366;2024-03-23T05:48:06;1.63;;;0.80;;
17947;SDS011;9099;47.958;11.366;2024-03-23T05:50:34;1.55;;;0.68;;
17947;SDS011;9099;47.958;11.366;2024-03-23T05:53:01;1.15;;;0.70;;
17947;SDS011;9099;47.958;11.366;2024-03-23T05:55:27;0.85;;;0.80;;
17947;SDS011;9099;47.958;11.366;2024-03-23T05:57:54;0.98;;;0.80;;
17947;SDS011;9099;47.958;11.366;2024-03-23T06:00:26;0.90;;;0.90;;
17947;SDS011;9099;47.958;11.366;2024-03-23T06:02:53;0.70;;;0.70;;
17947;SDS011;9099;47.958;11.366;2024-03-23T06:05:19;1.17;;;1.17;;
17947;SDS011;9099;47.958;11.366;2024-03-23T06:07:49;1.85;;;0.80;;
17947;SDS011;9099;47.958;11.366;2024-03-23T06:10:15;1.17;;;0.80;;
17947;SDS011;9099;47.958;11.366;2024-03-23T06:12:47;0.70;;;0.70;;
17947;SDS011;9099;47.958;11.366;2024-03-23T06:15:15;1.00;;;0.88;;
17947;SDS011;9099;47.958;11.366;2024-03-23T06:17:42;0.98;;;0.80;;
17947;SDS011;9099;47.958;11.366;2024-03-23T06:20:08;1.20;;;0.70;;
17947;SDS011;9099;47.958;11.366;2024-03-23T06:22:36;0.85;;;0.63;;
17947;SDS011;9099;47.958;11.366;2024-03-23T06:25:09;0.70;;;0.70;;
17947;SDS011;9099;47.958;11.366;2024-03-23T06:27:37;2.60;;;0.90;;
17947;SDS011;9099;47.958;11.366;2024-03-23T06:30:04;0.75;;;0.75;;
17947;SDS011;9099;47.958;11.366;2024-03-23T06:32:32;0.85;;;0.85;;
17947;SDS011;9099;47.958;11.366;2024-03-23T06:34:58;1.67;;;0.80;;
17947;SDS011;9099;47.958;11.366;2024-03-23T06:37:25;2.10;;;1.00;;
17947;SDS011;9099;47.958;11.366;2024-03-23T06:39:51;1.05;;;0.82;;
17947;SDS011;9099;47.958;11.366;2024-03-23T06:42:20;1.17;;;0.90;;
17947;SDS011;9099;47.958;11.366;2024-03-23T06:44:46;1.10;;;1.00;;
17947;SDS011;9099;47.958;11.366;2024-03-23T06:47:13;1.15;;;1.05;;
17947;SDS011;9099;47.958;11.366;2024-03-23T06:49:39;2.40;;;1.40;;
17947;SDS011;9099;47.958;11.366;2024-03-23T06:52:06;1.90;;;1.27;;
17947;SDS011;9099;47.958;11.366;2024-03-23T06:54:32;2.30;;;1.33;;
17947;SDS011;9099;47.958;11.366;2024-03-23T06:56:59;2.13;;;1.17;;
17947;SDS011;9099;47.958;11.366;2024-03-23T06:59:27;1.23;;;1.13;;
17947;SDS011;9099;47.958;11.366;2024-03-23T07:01:57;1.27;;;1.10;;
17947;SDS011;9099;47.958;11.366;2024-03-23T07:04:23;0.93;;;0.93;;
17947;SDS011;9099;47.958;11.366;2024-03-23T07:06:55;1.00;;;0.90;;
17947;SDS011;9099;47.958;11.366;2024-03-23T07:09:21;1.45;;;1.00;;
17947;SDS011;9099;47.958;11.366;2024-03-23T07:11:51;0.98;;;0.98;;
17947;SDS011;9099;47.958;11.366;2024-03-23T07:14:21;1.02;;;1.02;;
17947;SDS011;9099;47.958;11.366;2024-03-23T07:16:56;1.13;;;1.02;;
17947;SDS011;9099;47.958;11.366;2024-03-23T07:19:24;1.20;;;1.13;;
17947;SDS011;9099;47.958;11.366;2024-03-23T07:21:52;0.93;;;0.93;;
17947;SDS011;9099;47.958;11.366;2024-03-23T07:24:18;1.30;;;1.10;;
17947;SDS011;9099;47.958;11.366;2024-03-23T07:26:45;1.10;;;1.10;;
17947;SDS011;9099;47.958;11.366;2024-03-23T07:29:12;1.08;;;0.82;;
17947;SDS011;9099;47.958;11.366;2024-03-23T07:31:40;1.27;;;1.13;;
17947;SDS011;9099;47.958;11.366;2024-03-23T07:34:08;1.13;;;1.00;;
17947;SDS011;9099;47.958;11.366;2024-03-23T07:36:34;1.42;;;1.27;;
17947;SDS011;9099;47.958;11.366;2024-03-23T07:39:00;2.40;;;1.80;;
17947;SDS011;9099;47.958;11.366;2024-03-23T07:41:29;2.47;;;1.48;;
17947;SDS011;9099;47.958;11.366;2024-03-23T07:43:55;1.40;;;1.30;;
17947;SDS011;9099;47.958;11.366;2024-03-23T07:46:22;3.25;;;1.58;;
17947;SDS011;9099;47.958;11.366;2024-03-23T07:48:50;1.50;;;1.40;;
17947;SDS011;9099;47.958;11.366;2024-03-23T07:51:19;2.28;;;1.70;;
17947;SDS011;9099;47.958;11.366;2024-03-23T07:53:47;1.63;;;1.52;;
17947;SDS011;9099;47.958;11.366;2024-03-23T07:56:15;1.48;;;1.30;;
17947;SDS011;9099;47.958;11.366;2024-03-23T07:58:41;2.03;;;1.30;;
17947;SDS011;9099;47.958;11.366;2024-03-23T08:01:09;0.98;;;0.82;;
17947;SDS011;9099;47.958;11.366;2024-03-23T08:03:36;1.33;;;0.70;;
17947;SDS011;9099;47.958;11.366;2024-03-23T08:06:08;1.60;;;0.90;;
17947;SDS011;9099;47.958;11.366;2024-03-23T08:08:36;3.28;;;1.63;;
17947;SDS011;9099;47.958;11.366;2024-03-23T08:11:04;1.80;;;1.00;;
17947;SDS011;9099;47.958;11.366;2024-03-23T08:13:30;0.70;;;0.70;;
17947;SDS011;9099;47.958;11.366;2024-03-23T08:16:01;0.63;;;0.63;;
17947;SDS011;9099;47.958;11.366;2024-03-23T08:18:28;0.90;;;0.70;;
17947;SDS011;9099;47.958;11.366;2024-03-23T08:20:56;1.15;;;0.70;;
17947;SDS011;9099;47.958;11.366;2024-03-23T08:23:23;1.05;;;0.90;;
17947;SDS011;9099;47.958;11.366;2024-03-23T08:25:52;1.35;;;0.98;;
17947;SDS011;9099;47.958;11.366;2024-03-23T08:28:23;5.57;;;1.10;;
17947;SDS011;9099;47.958;11.366;2024-03-23T08:30:50;0.88;;;0.85;;
17947;SDS011;9099;47.958;11.366;2024-03-23T08:33:16;2.00;;;0.98;;
17947;SDS011;9099;47.958;11.366;2024-03-23T08:35:43;0.93;;;0.80;;
17947;SDS011;9099;47.958;11.366;2024-03-23T08:38:18;1.50;;;0.90;;
17947;SDS011;9099;47.958;11.366;2024-03-23T08:40:45;1.40;;;1.30;;
17947;SDS011;9099;47.958;11.366;2024-03-23T08:43:13;1.13;;;0.88;;
17947;SDS011;9099;47.958;11.366;2024-03-23T08:45:40;0.80;;;0.80;;
17947;SDS011;9099;47.958;11.366;2024-03-23T08:48:06;4.00;;;3.50;;
17947;SDS011;9099;47.958;11.366;2024-03-23T08:50:34;1.23;;;0.80;;
17947;SDS011;9099;47.958;11.366;2024-03-23T08:53:00;1.00;;;0.90;;
17947;SDS011;9099;47.958;11.366;2024-03-23T08:55:28;1.30;;;1.20;;
17947;SDS011;9099;47.958;11.366;2024-03-23T08:57:54;1.80;;;1.10;;
17947;SDS011;9099;47.958;11.366;2024-03-23T09:00:22;1.02;;;0.93;;
17947;SDS011;9099;47.958;11.366;2024-03-23T09:02:48;1.33;;;1.23;;
17947;SDS011;9099;47.958;11.366;2024-03-23T09:05:16;1.75;;;0.98;;
17947;SDS011;9099;47.958;11.366;2024-03-23T09:07:42;0.82;;;0.70;;
17947;SDS011;9099;47.958;11.366;2024-03-23T09:10:09;0.80;;;0.80;;
17947;SDS011;9099;47.958;11.366;2024-03-23T09:12:35;0.80;;;0.80;;
17947;SDS011;9099;47.958;11.366;2024-03-23T09:15:03;1.00;;;0.90;;
17947;SDS011;9099;47.958;11.366;2024-03-23T09:17:31;1.17;;;0.70;;
17947;SDS011;9099;47.958;11.366;2024-03-23T09:19:58;0.70;;;0.70;;
17947;SDS011;9099;47.958;11.366;2024-03-23T09:22:23;1.83;;;0.80;;
17947;SDS011;9099;47.958;11.366;2024-03-23T09:24:51;0.93;;;0.90;;
17947;SDS011;9099;47.958;11.366;2024-03-23T09:27:17;1.40;;;1.30;;
17947;SDS011;9099;47.958;11.366;2024-03-23T09:29:44;1.25;;;1.00;;
17947;SDS011;9099;47.958;11.366;2024-03-23T09:32:10;1.40;;;1.30;;
17947;SDS011;9099;47.958;11.366;2024-03-23T09:34:38;1.33;;;1.23;;
17947;SDS011;9099;47.958;11.366;2024-03-23T09:37:04;1.55;;;1.45;;
17947;SDS011;9099;47.958;11.366;2024-03-23T09:39:35;1.60;;;1.50;;
17947;SDS011;9099;47.958;11.366;2024-03-23T09:42:01;1.48;;;1.33;;
17947;SDS011;9099;47.958;11.366;2024-03-23T09:44:28;1.17;;;1.15;;
17947;SDS011;9099;47.958;11.366;2024-03-23T09:46:54;1.20;;;0.75;;
17947;SDS011;9099;47.958;11.366;2024-03-23T09:49:22;0.63;;;0.63;;
17947;SDS011;9099;47.958;11.366;2024-03-23T09:51:49;0.80;;;0.70;;
17947;SDS011;9099;47.958;11.366;2024-03-23T09:54:17;0.95;;;0.73;;
17947;SDS011;9099;47.958;11.366;2024-03-23T09:56:43;0.60;;;0.60;;
17947;SDS011;9099;47.958;11.366;2024-03-23T09:59:10;0.82;;;0.70;;
17947;SDS011;9099;47.958;11.366;2024-03-23T10:01:36;0.30;;;0.30;;
17947;SDS011;9099;47.958;11.366;2024-03-23T10:04:03;0.40;;;0.32;;
17947;SDS011;9099;47.958;11.366;2024-03-23T10:06:30;0.63;;;0.40;;
17947;SDS011;9099;47.958;11.366;2024-03-23T10:08:59;0.25;;;0.25;;
17947;SDS011;9099;47.958;11.366;2024-03-23T10:11:25;0.30;;;0.30;;
17947;SDS011;9099;47.958;11.366;2024-03-23T10:13:52;0.90;;;0.40;;
17947;SDS011;9099;47.958;11.366;2024-03-23T10:16:20;0.73;;;0.50;;
17947;SDS011;9099;47.958;11.366;2024-03-23T10:18:49;0.40;;;0.40;;
17947;SDS011;9099;47.958;11.366;2024-03-23T10:21:15;0.77;;;0.73;;
17947;SDS011;9099;47.958;11.366;2024-03-23T10:23:43;0.47;;;0.47;;
17947;SDS011;9099;47.958;11.366;2024-03-23T10:26:14;0.20;;;0.20;;
17947;SDS011;9099;47.958;11.366;2024-03-23T10:28:52;0.50;;;0.40;;
17947;SDS011;9099;47.958;11.366;2024-03-23T10:31:26;0.77;;;0.60;;
17947;SDS011;9099;47.958;11.366;2024-03-23T10:33:53;0.40;;;0.40;;
17947;SDS011;9099;47.958;11.366;2024-03-23T10:36:19;1.02;;;0.63;;
17947;SDS011;9099;47.958;11.366;2024-03-23T10:38:47;0.63;;;0.63;;
17947;SDS011;9099;47.958;11.366;2024-03-23T10:41:16;0.68;;;0.68;;
17947;SDS011;9099;47.958;11.366;2024-03-23T10:43:46;0.52;;;0.52;;
17947;SDS011;9099;47.958;11.366;2024-03-23T10:46:12;0.60;;;0.60;;
17947;SDS011;9099;47.958;11.366;2024-03-23T10:48:41;0.75;;;0.75;;
17947;SDS011;9099;47.958;11.366;2024-03-23T10:51:08;0.65;;;0.65;;
17947;SDS011;9099;47.958;11.366;2024-03-23T10:53:37;0.30;;;0.30;;
17947;SDS011;9099;47.958;11.366;2024-03-23T10:56:03;0.50;;;0.50;;
17947;SDS011;9099;47.958;11.366;2024-03-23T10:58:32;0.40;;;0.40;;
17947;SDS011;9099;47.958;11.366;2024-03-23T11:01:02;1.17;;;0.40;;
17947;SDS011;9099;47.958;11.366;2024-03-23T11:03:30;0.60;;;0.60;;
17947;SDS011;9099;47.958;11.366;2024-03-23T11:05:56;0.38;;;0.38;;
17947;SDS011;9099;47.958;11.366;2024-03-23T11:08:33;0.50;;;0.50;;
17947;SDS011;9099;47.958;11.366;2024-03-23T11:11:16;0.50;;;0.50;;
17947;SDS011;9099;47.958;11.366;2024-03-23T11:13:47;0.60;;;0.60;;
17947;SDS011;9099;47.958;11.366;2024-03-23T11:16:14;0.85;;;0.55;;
17947;SDS011;9099;47.958;11.366;2024-03-23T11:18:41;1.75;;;0.82;;
17947;SDS011;9099;47.958;11.366;2024-03-23T11:21:08;1.05;;;1.05;;
17947;SDS011;9099;47.958;11.366;2024-03-23T11:23:36;0.77;;;0.77;;
17947;SDS011;9099;47.958;11.366;2024-03-23T11:26:06;1.13;;;0.80;;
17947;SDS011;9099;47.958;11.366;2024-03-23T11:28:34;2.13;;;0.98;;
17947;SDS011;9099;47.958;11.366;2024-03-23T11:31:01;2.30;;;1.30;;
17947;SDS011;9099;47.958;11.366;2024-03-23T11:33:40;1.90;;;1.15;;
17947;SDS011;9099;47.958;11.366;2024-03-23T11:36:07;1.50;;;1.10;;
17947;SDS011;9099;47.958;11.366;2024-03-23T11:38:36;1.92;;;1.10;;
17947;SDS011;9099;47.958;11.366;2024-03-23T11:41:02;1.88;;;0.98;;
17947;SDS011;9099;47.958;11.366;2024-03-23T11:43:30;1.55;;;0.95;;
17947;SDS011;9099;47.958;11.366;2024-03-23T11:45:58;1.60;;;1.20;;
17947;SDS011;9099;47.958;11.366;2024-03-23T11:48:31;1.58;;;1.10;;
17947;SDS011;9099;47.958;11.366;2024-03-23T11:50:57;0.88;;;0.88;;
17947;SDS011;9099;47.958;11.366;2024-03-23T11:53:25;2.22;;;1.25;;
17947;SDS011;9099;47.958;11.366;2024-03-23T11:55:52;0.98;;;0.90;;
17947;SDS011;9099;47.958;11.366;2024-03-23T11:58:21;1.70;;;0.93;;
17947;SDS011;9099;47.958;11.366;2024-03-23T12:00:51;0.90;;;0.90;;
17947;SDS011;9099;47.958;11.366;2024-03-23T12:03:23;1.15;;;1.05;;
17947;SDS011;9099;47.958;11.366;2024-03-23T12:05:53;2.05;;;1.15;;
17947;SDS011;9099;47.958;11.366;2024-03-23T12:08:21;1.27;;;1.05;;
17947;SDS011;9099;47.958;11.366;2024-03-23T12:10:49;0.98;;;0.85;;
17947;SDS011;9099;47.958;11.366;2024-03-23T12:13:18;0.95;;;0.95;;
17947;SDS011;9099;47.958;11.366;2024-03-23T12:15:45;2.28;;;1.20;;
17947;SDS011;9099;47.958;11.366;2024-03-23T12:18:13;1.15;;;0.80;;
17947;SDS011;9099;47.958;11.366;2024-03-23T12:20:39;1.63;;;1.10;;
17947;SDS011;9099;47.958;11.366;2024-03-23T12:23:09;1.17;;;0.90;;
17947;SDS011;9099;47.958;11.366;2024-03-23T12:25:36;1.30;;;1.20;;
17947;SDS011;9099;47.958;11.366;2024-03-23T12:28:04;1.77;;;1.00;;
17947;SDS011;9099;47.958;11.366;2024-03-23T12:30:35;0.90;;;0.90;;
17947;SDS011;9099;47.958;11.366;2024-03-23T12:33:08;2.95;;;1.15;;
17947;SDS011;9099;47.958;11.366;2024-03-23T12:35:34;1.40;;;0.88;;
17947;SDS011;9099;47.958;11.366;2024-03-23T12:38:02;1.80;;;0.98;;
17947;SDS011;9099;47.958;11.366;2024-03-23T12:40:30;2.38;;;1.10;;
17947;SDS011;9099;47.958;11.366;2024-03-23T12:43:03;1.65;;;0.98;;
17947;SDS011;9099;47.958;11.366;2024-03-23T12:45:29;1.75;;;1.00;;
17947;SDS011;9099;47.958;11.366;2024-03-23T12:47:59;0.85;;;0.80;;
17947;SDS011;9099;47.958;11.366;2024-03-23T12:50:25;2.55;;;1.52;;
17947;SDS011;9099;47.958;11.366;2024-03-23T12:52:53;2.67;;;1.25;;
17947;SDS011;9099;47.958;11.366;2024-03-23T12:55:19;3.05;;;1.58;;
17947;SDS011;9099;47.958;11.366;2024-03-23T12:57:51;1.73;;;1.20;;
17947;SDS011;9099;47.958;11.366;2024-03-23T13:00:17;1.17;;;1.00;;
17947;SDS011;9099;47.958;11.366;2024-03-23T13:02:47;1.85;;;1.30;;
17947;SDS011;9099;47.958;11.366;2024-03-23T13:05:15;2.70;;;1.35;;
17947;SDS011;9099;47.958;11.366;2024-03-23T13:07:45;2.05;;;1.33;;
17947;SDS011;9099;47.958;11.366;2024-03-23T13:10:13;2.17;;;1.45;;
17947;SDS011;9099;47.958;11.366;2024-03-23T13:12:47;1.55;;;1.13;;
17947;SDS011;9099;47.958;11.366;2024-03-23T13:15:25;2.45;;;1.20;;
17947;SDS011;9099;47.958;11.366;2024-03-23T13:18:06;2.22;;;1.20;;
17947;SDS011;9099;47.958;11.366;2024-03-23T13:20:39;2.55;;;1.35;;
17947;SDS011;9099;47.958;11.366;2024-03-23T13:23:06;2.35;;;1.48;;
17947;SDS011;9099;47.958;11.366;2024-03-23T13:25:39;1.48;;;1.15;;
17947;SDS011;9099;47.958;11.366;2024-03-23T13:28:05;1.75;;;1.08;;
17947;SDS011;9099;47.958;11.366;2024-03-23T13:30:36;1.40;;;1.10;;
17947;SDS011;9099;47.958;11.366;2024-03-23T13:33:11;0.93;;;0.90;;
17947;SDS011;9099;47.958;11.366;2024-03-23T13:35:52;2.97;;;1.00;;
17947;SDS011;9099;47.958;11.366;2024-03-23T13:38:29;1.48;;;1.10;;
17947;SDS011;9099;47.958;11.366;2024-03-23T13:41:01;1.42;;;1.00;;
17947;SDS011;9099;47.958;11.366;2024-03-23T13:43:29;1.02;;;0.90;;
17947;SDS011;9099;47.958;11.366;2024-03-23T13:45:57;2.35;;;1.20;;
17947;SDS011;9099;47.958;11.366;2024-03-23T13:48:26;1.75;;;1.35;;
17947;SDS011;9099;47.958;11.366;2024-03-23T13:50:57;2.38;;;1.33;;
17947;SDS011;9099;47.958;11.366;2024-03-23T13:53:26;2.03;;;1.33;;
17947;SDS011;9099;47.958;11.366;2024-03-23T13:55:54;1.27;;;1.17;;
17947;SDS011;9099;47.958;11.366;2024-03-23T13:58:21;1.63;;;1.17;;
17947;SDS011;9099;47.958;11.366;2024-03-23T14:00:50;1.65;;;1.30;;
17947;SDS011;9099;47.958;11.366;2024-03-23T14:03:24;1.55;;;1.10;;
17947;SDS011;9099;47.958;11.366;2024-03-23T14:05:58;1.85;;;0.98;;
17947;SDS011;9099;47.958;11.366;2024-03-23T14:08:28;1.08;;;0.77;;
17947;SDS011;9099;47.958;11.366;2024-03-23T14:10:58;1.42;;;0.73;;
17947;SDS011;9099;47.958;11.366;2024-03-23T14:13:25;1.20;;;1.08;;
17947;SDS011;9099;47.958;11.366;2024-03-23T14:15:52;1.60;;;1.20;;
17947;SDS011;9099;47.958;11.366;2024-03-23T14:18:21;2.05;;;0.98;;
17947;SDS011;9099;47.958;11.366;2024-03-23T14:20:49;0.93;;;0.90;;
17947;SDS011;9099;47.958;11.366;2024-03-23T14:23:16;1.88;;;1.15;;
17947;SDS011;9099;47.958;11.366;2024-03-23T14:25:43;3.97;;;1.40;;
17947;SDS011;9099;47.958;11.366;2024-03-23T14:28:10;2.03;;;1.15;;
17947;SDS011;9099;47.958;11.366;2024-03-23T14:30:42;1.73;;;1.17;;
17947;SDS011;9099;47.958;11.366;2024-03-23T14:33:16;2.00;;;1.40;;
17947;SDS011;9099;47.958;11.366;2024-03-23T14:35:48;2.63;;;1.50;;
17947;SDS011;9099;47.958;11.366;2024-03-23T14:38:22;2.83;;;1.33;;
17947;SDS011;9099;47.958;11.366;2024-03-23T14:40:49;4.03;;;1.70;;
17947;SDS011;9099;47.958;11.366;2024-03-23T14:43:16;3.30;;;1.42;;
17947;SDS011;9099;47.958;11.366;2024-03-23T14:45:48;1.40;;;1.30;;
17947;SDS011;9099;47.958;11.366;2024-03-23T14:48:34;2.33;;;1.10;;
17947;SDS011;9099;47.958;11.366;2024-03-23T14:51:04;1.48;;;1.38;;
17947;SDS011;9099;47.958;11.366;2024-03-23T14:53:32;4.50;;;1.70;;
17947;SDS011;9099;47.958;11.366;2024-03-23T14:55:59;4.10;;;1.42;;
17947;SDS011;9099;47.958;11.366;2024-03-23T14:58:27;7.07;;;1.60;;
17947;SDS011;9099;47.958;11.366;2024-03-23T15:00:59;2.47;;;1.40;;
17947;SDS011;9099;47.958;11.366;2024-03-23T15:03:26;1.85;;;1.55;;
17947;SDS011;9099;47.958;11.366;2024-03-23T15:05:56;3.97;;;1.90;;
17947;SDS011;9099;47.958;11.366;2024-03-23T15:08:24;1.40;;;1.30;;
17947;SDS011;9099;47.958;11.366;2024-03-23T15:10:52;1.58;;;1.48;;
17947;SDS011;9099;47.958;11.366;2024-03-23T15:13:21;1.55;;;1.45;;
17947;SDS011;9099;47.958;11.366;2024-03-23T15:15:50;1.77;;;1.45;;
17947;SDS011;9099;47.958;11.366;2024-03-23T15:18:17;2.95;;;1.50;;
17947;SDS011;9099;47.958;11.366;2024-03-23T15:20:53;2.03;;;1.30;;
17947;SDS011;9099;47.958;11.366;2024-03-23T15:23:19;2.10;;;1.42;;
17947;SDS011;9099;47.958;11.366;2024-03-23T15:25:55;3.38;;;1.40;;
17947;SDS011;9099;47.958;11.366;2024-03-23T15:28:23;3.08;;;1.33;;
17947;SDS011;9099;47.958;11.366;2024-03-23T15:30:52;2.97;;;1.30;;
17947;SDS011;9099;47.958;11.366;2024-03-23T15:33:20;2.03;;;1.50;;
17947;SDS011;9099;47.958;11.366;2024-03-23T15:35:51;3.53;;;1.90;;
17947;SDS011;9099;47.958;11.366;2024-03-23T15:38:16;1.83;;;1.25;;
17947;SDS011;9099;47.958;11.366;2024-03-23T15:40:50;3.42;;;2.00;;
17947;SDS011;9099;47.958;11.366;2024-03-23T15:43:18;2.25;;;1.38;;
17947;SDS011;9099;47.958;11.366;2024-03-23T15:45:53;1.67;;;1.50;;
17947;SDS011;9099;47.958;11.366;2024-03-23T15:48:19;1.80;;;1.30;;